Llambi Campbell, Argentina
Current Conditions -  °F | °C
As of 1:00 PM on Monday 22 Dec 2014 (Local Time) from SAAR Reporting Station
Clear Clear  
Wind Chill: 72°   Ceiling: Unl
Heat Index: 72°   Visibility: 6mi
Dew Point: 34°   Wind: 14mph
Humidity: 25%   Direction: 200°SSW
Pressure: 30.12"   Gusts: NA
Location:  31.18°S, 60.75°W
Report Text: SAAR 221600Z 20012KT CAVOK 22/01 Q1020
Loading
Personal Weather Stations






























Interactive Weather Map New forecast layout! Learn more

10-Day Weather Forecast

Advertisements
Track Severe Weather on mobile